sensor_id;sensor_type;location;lat;lon;timestamp;temperature;humidity
40816;DHT22;26535;48.788;9.214;2023-11-21T00:01:31;8.70;99.90
40816;DHT22;26535;48.788;9.214;2023-11-21T00:03:58;8.80;99.90
40816;DHT22;26535;48.788;9.214;2023-11-21T00:06:23;8.80;99.90
40816;DHT22;26535;48.788;9.214;2023-11-21T00:08:49;8.80;99.90
40816;DHT22;26535;48.788;9.214;2023-11-21T00:11:15;8.80;99.90
40816;DHT22;26535;48.788;9.214;2023-11-21T00:13:40;8.80;99.90
40816;DHT22;26535;48.788;9.214;2023-11-21T00:16:06;8.70;99.90
40816;DHT22;26535;48.788;9.214;2023-11-21T00:18:33;8.70;99.90
40816;DHT22;26535;48.788;9.214;2023-11-21T00:20:58;8.70;99.90
40816;DHT22;26535;48.788;9.214;2023-11-21T00:23:24;8.70;99.90
40816;DHT22;26535;48.788;9.214;2023-11-21T00:25:50;8.60;99.90
40816;DHT22;26535;48.788;9.214;2023-11-21T00:28:16;8.60;99.90
40816;DHT22;26535;48.788;9.214;2023-11-21T00:30:42;8.70;99.90
40816;DHT22;26535;48.788;9.214;2023-11-21T00:33:07;8.70;99.90
40816;DHT22;26535;48.788;9.214;2023-11-21T00:35:33;8.80;99.90
40816;DHT22;26535;48.788;9.214;2023-11-21T00:37:59;8.80;99.90
40816;DHT22;26535;48.788;9.214;2023-11-21T00:40:25;8.80;99.90
40816;DHT22;26535;48.788;9.214;2023-11-21T00:42:50;8.90;99.90
40816;DHT22;26535;48.788;9.214;2023-11-21T00:45:16;8.90;99.90
40816;DHT22;26535;48.788;9.214;2023-11-21T00:47:42;8.90;99.90
40816;DHT22;26535;48.788;9.214;2023-11-21T00:50:08;8.90;99.90
40816;DHT22;26535;48.788;9.214;2023-11-21T00:52:35;8.90;99.90
40816;DHT22;26535;48.788;9.214;2023-11-21T00:55:02;8.90;99.90
40816;DHT22;26535;48.788;9.214;2023-11-21T00:57:28;9.00;99.90
40816;DHT22;26535;48.788;9.214;2023-11-21T00:59:55;9.00;99.90
40816;DHT22;26535;48.788;9.214;2023-11-21T01:02:21;9.00;99.90
40816;DHT22;26535;48.788;9.214;2023-11-21T01:04:46;9.00;99.90
40816;DHT22;26535;48.788;9.214;2023-11-21T01:07:13;9.00;99.90
40816;DHT22;26535;48.788;9.214;2023-11-21T01:09:39;9.00;99.90
40816;DHT22;26535;48.788;9.214;2023-11-21T01:12:06;8.90;99.90
40816;DHT22;26535;48.788;9.214;2023-11-21T01:14:33;9.00;99.90
40816;DHT22;26535;48.788;9.214;2023-11-21T01:16:59;9.00;99.90
40816;DHT22;26535;48.788;9.214;2023-11-21T01:19:24;9.00;99.90
40816;DHT22;26535;48.788;9.214;2023-11-21T01:21:50;9.00;99.90
40816;DHT22;26535;48.788;9.214;2023-11-21T01:24:17;9.00;99.90
40816;DHT22;26535;48.788;9.214;2023-11-21T01:26:43;9.00;99.90
40816;DHT22;26535;48.788;9.214;2023-11-21T01:29:10;9.00;99.90
40816;DHT22;26535;48.788;9.214;2023-11-21T06:20:33;8.40;99.90
40816;DHT22;26535;48.788;9.214;2023-11-21T06:22:59;8.30;99.90
40816;DHT22;26535;48.788;9.214;2023-11-21T06:25:28;8.40;99.90
40816;DHT22;26535;48.788;9.214;2023-11-21T06:27:54;8.40;99.90
40816;DHT22;26535;48.788;9.214;2023-11-21T06:30:20;8.40;99.90
40816;DHT22;26535;48.788;9.214;2023-11-21T06:32:47;8.40;99.90
40816;DHT22;26535;48.788;9.214;2023-11-21T06:35:13;8.50;99.90
40816;DHT22;26535;48.788;9.214;2023-11-21T06:37:39;8.50;99.90
40816;DHT22;26535;48.788;9.214;2023-11-21T06:40:05;8.50;99.90
40816;DHT22;26535;48.788;9.214;2023-11-21T06:42:31;8.50;99.90
40816;DHT22;26535;48.788;9.214;2023-11-21T06:44:59;8.60;99.90
40816;DHT22;26535;48.788;9.214;2023-11-21T06:47:25;8.50;99.90
40816;DHT22;26535;48.788;9.214;2023-11-21T06:49:52;8.50;99.90
40816;DHT22;26535;48.788;9.214;2023-11-21T06:52:18;8.50;99.90
40816;DHT22;26535;48.788;9.214;2023-11-21T06:54:44;8.50;99.90
40816;DHT22;26535;48.788;9.214;2023-11-21T06:57:11;8.50;99.90
40816;DHT22;26535;48.788;9.214;2023-11-21T06:59:36;8.50;99.90
40816;DHT22;26535;48.788;9.214;2023-11-21T07:02:02;8.50;99.90
40816;DHT22;26535;48.788;9.214;2023-11-21T07:04:28;8.50;99.90
40816;DHT22;26535;48.788;9.214;2023-11-21T07:06:54;8.60;99.90
40816;DHT22;26535;48.788;9.214;2023-11-21T07:09:20;8.60;99.90
40816;DHT22;26535;48.788;9.214;2023-11-21T07:11:49;8.60;99.90
40816;DHT22;26535;48.788;9.214;2023-11-21T07:14:16;8.60;99.90
40816;DHT22;26535;48.788;9.214;2023-11-21T07:16:43;8.60;99.90
40816;DHT22;26535;48.788;9.214;2023-11-21T07:19:09;8.70;99.90
40816;DHT22;26535;48.788;9.214;2023-11-21T07:21:38;8.80;99.90
40816;DHT22;26535;48.788;9.214;2023-11-21T07:24:08;8.80;99.90
40816;DHT22;26535;48.788;9.214;2023-11-21T07:26:39;8.80;99.90
40816;DHT22;26535;48.788;9.214;2023-11-21T07:29:05;8.80;99.90
40816;DHT22;26535;48.788;9.214;2023-11-21T07:31:31;8.80;99.90
40816;DHT22;26535;48.788;9.214;2023-11-21T07:33:59;8.90;99.90
40816;DHT22;26535;48.788;9.214;2023-11-21T07:36:25;8.90;99.90
40816;DHT22;26535;48.788;9.214;2023-11-21T07:38:51;8.90;99.90
40816;DHT22;26535;48.788;9.214;2023-11-21T07:41:20;8.90;99.90
40816;DHT22;26535;48.788;9.214;2023-11-21T07:43:46;9.00;99.90
40816;DHT22;26535;48.788;9.214;2023-11-21T07:46:12;9.00;99.90
40816;DHT22;26535;48.788;9.214;2023-11-21T07:48:39;9.00;99.90
40816;DHT22;26535;48.788;9.214;2023-11-21T07:51:06;9.00;99.90
40816;DHT22;26535;48.788;9.214;2023-11-21T07:53:32;9.00;99.90
40816;DHT22;26535;48.788;9.214;2023-11-21T07:56:08;9.10;99.90
40816;DHT22;26535;48.788;9.214;2023-11-21T07:58:37;9.20;99.90
40816;DHT22;26535;48.788;9.214;2023-11-21T08:01:03;9.20;99.90
40816;DHT22;26535;48.788;9.214;2023-11-21T08:03:30;9.30;99.90
40816;DHT22;26535;48.788;9.214;2023-11-21T08:05:57;9.30;99.90
40816;DHT22;26535;48.788;9.214;2023-11-21T08:08:23;9.30;99.90
40816;DHT22;26535;48.788;9.214;2023-11-21T08:10:49;9.40;99.90
40816;DHT22;26535;48.788;9.214;2023-11-21T08:13:28;9.40;99.90
40816;DHT22;26535;48.788;9.214;2023-11-21T08:15:57;9.40;99.90
40816;DHT22;26535;48.788;9.214;2023-11-21T08:18:27;9.40;99.90
40816;DHT22;26535;48.788;9.214;2023-11-21T08:20:53;9.40;99.90
40816;DHT22;26535;48.788;9.214;2023-11-21T08:23:20;9.40;99.90
40816;DHT22;26535;48.788;9.214;2023-11-21T08:25:51;9.50;99.90
40816;DHT22;26535;48.788;9.214;2023-11-21T08:28:17;9.50;99.90
40816;DHT22;26535;48.788;9.214;2023-11-21T08:30:43;9.50;99.90
40816;DHT22;26535;48.788;9.214;2023-11-21T08:33:08;9.60;99.90
40816;DHT22;26535;48.788;9.214;2023-11-21T08:35:35;9.60;99.90
40816;DHT22;26535;48.788;9.214;2023-11-21T08:38:01;9.70;99.90
40816;DHT22;26535;48.788;9.214;2023-11-21T08:40:27;9.70;99.90
40816;DHT22;26535;48.788;9.214;2023-11-21T08:42:53;9.80;99.90
40816;DHT22;26535;48.788;9.214;2023-11-21T08:45:24;9.80;99.90
40816;DHT22;26535;48.788;9.214;2023-11-21T08:47:51;10.00;99.90
40816;DHT22;26535;48.788;9.214;2023-11-21T08:50:16;10.10;99.90
40816;DHT22;26535;48.788;9.214;2023-11-21T08:52:43;10.20;99.90
40816;DHT22;26535;48.788;9.214;2023-11-21T08:55:09;10.40;99.90
40816;DHT22;26535;48.788;9.214;2023-11-21T08:57:38;10.50;99.90
40816;DHT22;26535;48.788;9.214;2023-11-21T09:00:06;10.70;99.90
40816;DHT22;26535;48.788;9.214;2023-11-21T09:02:41;10.90;99.90
40816;DHT22;26535;48.788;9.214;2023-11-21T09:05:10;11.00;99.90
40816;DHT22;26535;48.788;9.214;2023-11-21T09:07:37;11.10;99.90
40816;DHT22;26535;48.788;9.214;2023-11-21T09:10:07;11.20;99.90
40816;DHT22;26535;48.788;9.214;2023-11-21T09:12:35;11.20;99.90
40816;DHT22;26535;48.788;9.214;2023-11-21T09:15:03;11.40;99.90
40816;DHT22;26535;48.788;9.214;2023-11-21T09:17:30;11.50;99.90
40816;DHT22;26535;48.788;9.214;2023-11-21T09:19:56;11.60;99.90
40816;DHT22;26535;48.788;9.214;2023-11-21T09:22:22;11.70;99.90
40816;DHT22;26535;48.788;9.214;2023-11-21T09:24:50;11.70;99.90
40816;DHT22;26535;48.788;9.214;2023-11-21T09:27:16;11.70;99.90
40816;DHT22;26535;48.788;9.214;2023-11-21T09:29:43;11.90;99.90
40816;DHT22;26535;48.788;9.214;2023-11-21T09:32:09;12.00;99.90
40816;DHT22;26535;48.788;9.214;2023-11-21T09:34:38;12.00;99.90
40816;DHT22;26535;48.788;9.214;2023-11-21T09:37:07;12.10;99.90
40816;DHT22;26535;48.788;9.214;2023-11-21T09:39:33;11.90;99.90
40816;DHT22;26535;48.788;9.214;2023-11-21T09:42:15;11.90;99.90
40816;DHT22;26535;48.788;9.214;2023-11-21T09:45:03;11.90;99.90
40816;DHT22;26535;48.788;9.214;2023-11-21T09:47:30;12.00;99.90
40816;DHT22;26535;48.788;9.214;2023-11-21T09:49:56;11.80;99.90
40816;DHT22;26535;48.788;9.214;2023-11-21T09:52:28;11.60;99.90
40816;DHT22;26535;48.788;9.214;2023-11-21T09:54:54;11.40;99.90
40816;DHT22;26535;48.788;9.214;2023-11-21T09:57:22;11.50;99.90
40816;DHT22;26535;48.788;9.214;2023-11-21T09:59:51;11.50;99.90
40816;DHT22;26535;48.788;9.214;2023-11-21T10:02:23;11.40;99.90
40816;DHT22;26535;48.788;9.214;2023-11-21T10:04:52;11.60;99.90
40816;DHT22;26535;48.788;9.214;2023-11-21T10:07:21;11.60;99.90
40816;DHT22;26535;48.788;9.214;2023-11-21T10:09:48;11.60;99.90
40816;DHT22;26535;48.788;9.214;2023-11-21T10:12:17;11.60;99.90
40816;DHT22;26535;48.788;9.214;2023-11-21T10:14:49;11.50;99.90
40816;DHT22;26535;48.788;9.214;2023-11-21T10:17:17;11.40;99.90
40816;DHT22;26535;48.788;9.214;2023-11-21T10:19:48;11.20;99.90
40816;DHT22;26535;48.788;9.214;2023-11-21T10:22:17;11.00;99.90
40816;DHT22;26535;48.788;9.214;2023-11-21T10:24:45;10.90;99.90
40816;DHT22;26535;48.788;9.214;2023-11-21T10:27:11;10.90;99.90
40816;DHT22;26535;48.788;9.214;2023-11-21T10:29:36;10.90;99.90
40816;DHT22;26535;48.788;9.214;2023-11-21T10:32:03;10.80;99.90
40816;DHT22;26535;48.788;9.214;2023-11-21T10:34:31;10.80;99.90
40816;DHT22;26535;48.788;9.214;2023-11-21T10:36:57;10.80;99.90
40816;DHT22;26535;48.788;9.214;2023-11-21T10:39:24;10.70;99.90
40816;DHT22;26535;48.788;9.214;2023-11-21T10:41:54;10.70;99.90
40816;DHT22;26535;48.788;9.214;2023-11-21T10:44:21;10.60;99.90
40816;DHT22;26535;48.788;9.214;2023-11-21T10:46:52;10.60;99.90
40816;DHT22;26535;48.788;9.214;2023-11-21T10:49:22;10.70;99.90
40816;DHT22;26535;48.788;9.214;2023-11-21T10:51:54;10.70;99.90
40816;DHT22;26535;48.788;9.214;2023-11-21T10:54:22;10.80;99.90
40816;DHT22;26535;48.788;9.214;2023-11-21T10:56:57;11.00;99.90
40816;DHT22;26535;48.788;9.214;2023-11-21T10:59:25;11.10;99.90
40816;DHT22;26535;48.788;9.214;2023-11-21T11:01:53;11.50;99.90
40816;DHT22;26535;48.788;9.214;2023-11-21T11:04:19;11.50;99.90
40816;DHT22;26535;48.788;9.214;2023-11-21T11:09:20;12.00;99.90
40816;DHT22;26535;48.788;9.214;2023-11-21T11:11:46;12.00;99.90
40816;DHT22;26535;48.788;9.214;2023-11-21T11:14:13;12.20;99.90
40816;DHT22;26535;48.788;9.214;2023-11-21T11:16:40;12.30;99.90
40816;DHT22;26535;48.788;9.214;2023-11-21T11:19:09;12.40;99.90
40816;DHT22;26535;48.788;9.214;2023-11-21T11:27:56;12.70;99.90
40816;DHT22;26535;48.788;9.214;2023-11-21T11:33:29;12.80;99.90
40816;DHT22;26535;48.788;9.214;2023-11-21T11:36:06;12.60;99.90
40816;DHT22;26535;48.788;9.214;2023-11-21T11:38:33;12.70;99.90
40816;DHT22;26535;48.788;9.214;2023-11-21T11:41:05;12.70;99.90
40816;DHT22;26535;48.788;9.214;2023-11-21T11:43:31;12.60;99.90
40816;DHT22;26535;48.788;9.214;2023-11-21T11:46:10;12.50;99.90
40816;DHT22;26535;48.788;9.214;2023-11-21T11:48:42;12.30;99.90
40816;DHT22;26535;48.788;9.214;2023-11-21T11:51:15;12.20;99.90
40816;DHT22;26535;48.788;9.214;2023-11-21T11:53:45;12.10;99.90
40816;DHT22;26535;48.788;9.214;2023-11-21T11:56:31;12.00;99.90
40816;DHT22;26535;48.788;9.214;2023-11-21T11:59:03;12.10;99.90
40816;DHT22;26535;48.788;9.214;2023-11-21T12:01:32;12.20;99.90
40816;DHT22;26535;48.788;9.214;2023-11-21T12:06:57;12.10;99.90
40816;DHT22;26535;48.788;9.214;2023-11-21T12:09:26;12.10;99.90
40816;DHT22;26535;48.788;9.214;2023-11-21T12:11:56;12.00;99.90
40816;DHT22;26535;48.788;9.214;2023-11-21T12:14:31;12.00;99.90
40816;DHT22;26535;48.788;9.214;2023-11-21T12:17:01;11.90;99.90
40816;DHT22;26535;48.788;9.214;2023-11-21T12:19:28;11.70;99.90
40816;DHT22;26535;48.788;9.214;2023-11-21T12:21:53;11.70;99.90
40816;DHT22;26535;48.788;9.214;2023-11-21T12:24:22;11.50;99.90
40816;DHT22;26535;48.788;9.214;2023-11-21T12:26:54;11.60;99.90
40816;DHT22;26535;48.788;9.214;2023-11-21T12:29:20;11.50;99.90
40816;DHT22;26535;48.788;9.214;2023-11-21T12:31:48;11.60;99.90
40816;DHT22;26535;48.788;9.214;2023-11-21T12:34:15;11.80;99.90
40816;DHT22;26535;48.788;9.214;2023-11-21T12:36:40;11.90;99.90
40816;DHT22;26535;48.788;9.214;2023-11-21T12:39:06;11.90;99.90
40816;DHT22;26535;48.788;9.214;2023-11-21T12:41:34;12.00;99.90
40816;DHT22;26535;48.788;9.214;2023-11-21T12:44:00;12.00;99.90
40816;DHT22;26535;48.788;9.214;2023-11-21T12:46:26;12.20;99.90
40816;DHT22;26535;48.788;9.214;2023-11-21T12:48:55;12.50;99.90
40816;DHT22;26535;48.788;9.214;2023-11-21T12:51:22;12.60;99.90
40816;DHT22;26535;48.788;9.214;2023-11-21T12:53:48;12.80;99.90
40816;DHT22;26535;48.788;9.214;2023-11-21T12:56:14;12.90;99.90
40816;DHT22;26535;48.788;9.214;2023-11-21T12:58:45;13.10;99.90
40816;DHT22;26535;48.788;9.214;2023-11-21T13:01:14;13.30;99.90
40816;DHT22;26535;48.788;9.214;2023-11-21T13:03:46;13.30;99.90
40816;DHT22;26535;48.788;9.214;2023-11-21T13:06:15;13.30;99.90
40816;DHT22;26535;48.788;9.214;2023-11-21T13:08:41;13.30;99.90
40816;DHT22;26535;48.788;9.214;2023-11-21T13:11:10;13.20;99.90
40816;DHT22;26535;48.788;9.214;2023-11-21T13:13:36;13.10;99.90
40816;DHT22;26535;48.788;9.214;2023-11-21T13:16:06;12.80;99.90
40816;DHT22;26535;48.788;9.214;2023-11-21T13:18:33;12.60;99.90
40816;DHT22;26535;48.788;9.214;2023-11-21T13:21:01;12.40;99.90
40816;DHT22;26535;48.788;9.214;2023-11-21T13:23:34;12.20;99.90
40816;DHT22;26535;48.788;9.214;2023-11-21T13:26:10;12.10;99.90
40816;DHT22;26535;48.788;9.214;2023-11-21T13:28:37;11.90;99.90
40816;DHT22;26535;48.788;9.214;2023-11-21T13:31:05;11.70;99.90
40816;DHT22;26535;48.788;9.214;2023-11-21T13:33:48;11.50;99.90
40816;DHT22;26535;48.788;9.214;2023-11-21T13:36:25;11.20;99.90
40816;DHT22;26535;48.788;9.214;2023-11-21T13:38:51;10.90;99.90
40816;DHT22;26535;48.788;9.214;2023-11-21T13:41:21;10.70;99.90
40816;DHT22;26535;48.788;9.214;2023-11-21T13:43:53;10.40;99.90
40816;DHT22;26535;48.788;9.214;2023-11-21T13:46:31;10.30;99.90
40816;DHT22;26535;48.788;9.214;2023-11-21T13:49:05;10.20;99.90
40816;DHT22;26535;48.788;9.214;2023-11-21T13:51:36;10.20;99.90
40816;DHT22;26535;48.788;9.214;2023-11-21T13:54:11;10.10;99.90
40816;DHT22;26535;48.788;9.214;2023-11-21T13:56:38;10.10;99.90
40816;DHT22;26535;48.788;9.214;2023-11-21T13:59:05;10.10;99.90
40816;DHT22;26535;48.788;9.214;2023-11-21T14:01:57;10.10;99.90
40816;DHT22;26535;48.788;9.214;2023-11-21T14:04:26;10.10;99.90
40816;DHT22;26535;48.788;9.214;2023-11-21T14:07:12;10.20;99.90
40816;DHT22;26535;48.788;9.214;2023-11-21T14:09:58;10.10;99.90
40816;DHT22;26535;48.788;9.214;2023-11-21T14:12:24;10.10;99.90
40816;DHT22;26535;48.788;9.214;2023-11-21T14:14:50;10.10;99.90
40816;DHT22;26535;48.788;9.214;2023-11-21T14:17:15;10.10;99.90
40816;DHT22;26535;48.788;9.214;2023-11-21T14:19:42;10.10;99.90
40816;DHT22;26535;48.788;9.214;2023-11-21T14:22:10;10.10;99.90
40816;DHT22;26535;48.788;9.214;2023-11-21T14:24:36;10.10;99.90
40816;DHT22;26535;48.788;9.214;2023-11-21T14:27:11;10.10;99.90
40816;DHT22;26535;48.788;9.214;2023-11-21T14:29:36;10.10;99.90
40816;DHT22;26535;48.788;9.214;2023-11-21T14:32:05;10.00;99.90
40816;DHT22;26535;48.788;9.214;2023-11-21T14:34:31;10.10;99.90
40816;DHT22;26535;48.788;9.214;2023-11-21T14:37:00;10.00;99.90
40816;DHT22;26535;48.788;9.214;2023-11-21T14:39:28;10.00;99.90
40816;DHT22;26535;48.788;9.214;2023-11-21T14:41:55;10.00;99.90
40816;DHT22;26535;48.788;9.214;2023-11-21T14:44:22;10.00;99.90
40816;DHT22;26535;48.788;9.214;2023-11-21T14:46:53;10.00;99.90
40816;DHT22;26535;48.788;9.214;2023-11-21T14:49:20;10.00;99.90
40816;DHT22;26535;48.788;9.214;2023-11-21T14:51:48;10.00;99.90
40816;DHT22;26535;48.788;9.214;2023-11-21T14:54:28;10.10;99.90
40816;DHT22;26535;48.788;9.214;2023-11-21T14:57:09;10.10;99.90
40816;DHT22;26535;48.788;9.214;2023-11-21T14:59:44;10.00;99.90
40816;DHT22;26535;48.788;9.214;2023-11-21T15:02:12;10.00;99.90
40816;DHT22;26535;48.788;9.214;2023-11-21T15:04:43;10.00;99.90
40816;DHT22;26535;48.788;9.214;2023-11-21T15:07:10;9.90;99.90
40816;DHT22;26535;48.788;9.214;2023-11-21T15:09:39;9.90;99.90
40816;DHT22;26535;48.788;9.214;2023-11-21T15:12:09;9.90;99.90
40816;DHT22;26535;48.788;9.214;2023-11-21T15:14:49;9.80;99.90
40816;DHT22;26535;48.788;9.214;2023-11-21T15:17:19;9.80;99.90
40816;DHT22;26535;48.788;9.214;2023-11-21T15:19:49;9.80;99.90
40816;DHT22;26535;48.788;9.214;2023-11-21T15:22:16;9.80;99.90
40816;DHT22;26535;48.788;9.214;2023-11-21T15:24:42;9.80;99.90
40816;DHT22;26535;48.788;9.214;2023-11-21T15:27:11;9.70;99.90
40816;DHT22;26535;48.788;9.214;2023-11-21T15:29:40;9.80;99.90
40816;DHT22;26535;48.788;9.214;2023-11-21T15:32:07;9.70;99.90
40816;DHT22;26535;48.788;9.214;2023-11-21T15:34:33;9.70;99.90
40816;DHT22;26535;48.788;9.214;2023-11-21T15:36:59;9.70;99.90
40816;DHT22;26535;48.788;9.214;2023-11-21T15:39:25;9.60;99.90
40816;DHT22;26535;48.788;9.214;2023-11-21T15:41:55;9.60;99.90
40816;DHT22;26535;48.788;9.214;2023-11-21T15:44:20;9.60;99.90
40816;DHT22;26535;48.788;9.214;2023-11-21T15:46:46;9.60;99.90
40816;DHT22;26535;48.788;9.214;2023-11-21T15:49:13;9.60;99.90
40816;DHT22;26535;48.788;9.214;2023-11-21T15:51:44;9.50;99.90
40816;DHT22;26535;48.788;9.214;2023-11-21T15:54:12;9.50;99.90
40816;DHT22;26535;48.788;9.214;2023-11-21T15:56:39;9.40;99.90
40816;DHT22;26535;48.788;9.214;2023-11-21T15:59:05;9.30;99.90
40816;DHT22;26535;48.788;9.214;2023-11-21T16:01:32;9.20;99.90
40816;DHT22;26535;48.788;9.214;2023-11-21T16:03:57;9.10;99.90
40816;DHT22;26535;48.788;9.214;2023-11-21T16:06:26;9.10;99.90
40816;DHT22;26535;48.788;9.214;2023-11-21T16:08:52;9.00;99.90
40816;DHT22;26535;48.788;9.214;2023-11-21T16:11:18;9.10;99.90
40816;DHT22;26535;48.788;9.214;2023-11-21T16:13:44;9.10;99.90
40816;DHT22;26535;48.788;9.214;2023-11-21T16:16:11;9.10;99.90
40816;DHT22;26535;48.788;9.214;2023-11-21T16:18:37;9.10;99.90
40816;DHT22;26535;48.788;9.214;2023-11-21T16:21:03;9.10;99.90
40816;DHT22;26535;48.788;9.214;2023-11-21T16:23:29;9.20;99.90
40816;DHT22;26535;48.788;9.214;2023-11-21T16:25:55;9.20;99.90
40816;DHT22;26535;48.788;9.214;2023-11-21T16:28:22;9.20;99.90
40816;DHT22;26535;48.788;9.214;2023-11-21T16:30:49;9.20;99.90
40816;DHT22;26535;48.788;9.214;2023-11-21T16:33:16;9.10;99.90
40816;DHT22;26535;48.788;9.214;2023-11-21T16:35:42;9.10;99.90
40816;DHT22;26535;48.788;9.214;2023-11-21T16:38:07;9.10;99.90
40816;DHT22;26535;48.788;9.214;2023-11-21T16:40:33;9.10;99.90
40816;DHT22;26535;48.788;9.214;2023-11-21T16:42:59;9.00;99.90
40816;DHT22;26535;48.788;9.214;2023-11-21T16:45:25;9.00;99.90
40816;DHT22;26535;48.788;9.214;2023-11-21T16:47:51;9.00;99.90
40816;DHT22;26535;48.788;9.214;2023-11-21T16:50:17;8.90;99.90
40816;DHT22;26535;48.788;9.214;2023-11-21T16:52:45;8.80;99.90
40816;DHT22;26535;48.788;9.214;2023-11-21T16:55:11;8.70;99.90
40816;DHT22;26535;48.788;9.214;2023-11-21T16:57:37;8.50;99.90
40816;DHT22;26535;48.788;9.214;2023-11-21T17:00:04;8.50;99.90
40816;DHT22;26535;48.788;9.214;2023-11-21T17:02:33;8.30;99.90
40816;DHT22;26535;48.788;9.214;2023-11-21T17:04:59;8.30;99.90
40816;DHT22;26535;48.788;9.214;2023-11-21T17:07:25;8.30;99.90
40816;DHT22;26535;48.788;9.214;2023-11-21T17:09:52;8.20;99.90
40816;DHT22;26535;48.788;9.214;2023-11-21T17:12:18;8.10;99.90
40816;DHT22;26535;48.788;9.214;2023-11-21T17:14:45;8.10;99.90
40816;DHT22;26535;48.788;9.214;2023-11-21T17:17:13;8.00;99.90
40816;DHT22;26535;48.788;9.214;2023-11-21T17:19:40;7.90;99.90
40816;DHT22;26535;48.788;9.214;2023-11-21T17:22:07;8.00;99.90
40816;DHT22;26535;48.788;9.214;2023-11-21T17:24:32;8.00;99.90
40816;DHT22;26535;48.788;9.214;2023-11-21T17:27:04;8.10;99.90
40816;DHT22;26535;48.788;9.214;2023-11-21T17:29:31;8.10;99.90
40816;DHT22;26535;48.788;9.214;2023-11-21T17:31:57;8.20;99.90
40816;DHT22;26535;48.788;9.214;2023-11-21T17:34:22;8.10;99.90
40816;DHT22;26535;48.788;9.214;2023-11-21T17:36:50;8.10;99.90
40816;DHT22;26535;48.788;9.214;2023-11-21T17:39:18;8.10;99.90
40816;DHT22;26535;48.788;9.214;2023-11-21T17:41:44;8.20;99.90
40816;DHT22;26535;48.788;9.214;2023-11-21T17:44:10;8.30;99.90
40816;DHT22;26535;48.788;9.214;2023-11-21T17:46:35;8.30;99.90
40816;DHT22;26535;48.788;9.214;2023-11-21T17:49:01;8.30;99.90
40816;DHT22;26535;48.788;9.214;2023-11-21T17:51:27;8.40;99.90
40816;DHT22;26535;48.788;9.214;2023-11-21T17:53:53;8.40;99.90
40816;DHT22;26535;48.788;9.214;2023-11-21T17:56:23;8.50;99.90
40816;DHT22;26535;48.788;9.214;2023-11-21T17:58:49;8.50;99.90
40816;DHT22;26535;48.788;9.214;2023-11-21T18:01:22;8.60;99.90
40816;DHT22;26535;48.788;9.214;2023-11-21T18:03:48;8.60;99.90
40816;DHT22;26535;48.788;9.214;2023-11-21T18:06:14;8.60;99.90
40816;DHT22;26535;48.788;9.214;2023-11-21T18:08:40;8.60;99.90
40816;DHT22;26535;48.788;9.214;2023-11-21T18:13:33;8.60;99.90
40816;DHT22;26535;48.788;9.214;2023-11-21T18:15:59;8.70;99.90
40816;DHT22;26535;48.788;9.214;2023-11-21T18:18:25;8.70;99.90
40816;DHT22;26535;48.788;9.214;2023-11-21T18:20:51;8.70;99.90
40816;DHT22;26535;48.788;9.214;2023-11-21T18:23:17;8.70;99.90
40816;DHT22;26535;48.788;9.214;2023-11-21T18:25:43;8.70;99.90
40816;DHT22;26535;48.788;9.214;2023-11-21T18:28:09;8.70;99.90
40816;DHT22;26535;48.788;9.214;2023-11-21T18:30:34;8.70;99.90
40816;DHT22;26535;48.788;9.214;2023-11-21T18:33:00;8.70;99.90
40816;DHT22;26535;48.788;9.214;2023-11-21T18:35:26;8.70;99.90
40816;DHT22;26535;48.788;9.214;2023-11-21T18:37:52;8.60;99.90
40816;DHT22;26535;48.788;9.214;2023-11-21T18:40:17;8.60;99.90
40816;DHT22;26535;48.788;9.214;2023-11-21T18:42:43;8.70;99.90
40816;DHT22;26535;48.788;9.214;2023-11-21T18:45:12;8.70;99.90
40816;DHT22;26535;48.788;9.214;2023-11-21T18:47:38;8.70;99.90
40816;DHT22;26535;48.788;9.214;2023-11-21T18:50:05;8.70;99.90
40816;DHT22;26535;48.788;9.214;2023-11-21T18:52:31;8.70;99.90
40816;DHT22;26535;48.788;9.214;2023-11-21T18:54:58;8.80;99.90
40816;DHT22;26535;48.788;9.214;2023-11-21T18:57:27;8.80;99.90
40816;DHT22;26535;48.788;9.214;2023-11-21T18:59:53;8.90;99.90
40816;DHT22;26535;48.788;9.214;2023-11-21T19:02:19;8.80;99.90
40816;DHT22;26535;48.788;9.214;2023-11-21T19:04:45;8.80;99.90
40816;DHT22;26535;48.788;9.214;2023-11-21T19:07:11;8.80;99.90
40816;DHT22;26535;48.788;9.214;2023-11-21T19:09:36;8.80;99.90
40816;DHT22;26535;48.788;9.214;2023-11-21T19:12:03;8.80;99.90
40816;DHT22;26535;48.788;9.214;2023-11-21T19:14:32;8.80;99.90
40816;DHT22;26535;48.788;9.214;2023-11-21T19:17:03;8.80;99.90
40816;DHT22;26535;48.788;9.214;2023-11-21T19:19:30;8.70;99.90
40816;DHT22;26535;48.788;9.214;2023-11-21T19:21:59;8.70;99.90
40816;DHT22;26535;48.788;9.214;2023-11-21T19:24:25;8.70;99.90
40816;DHT22;26535;48.788;9.214;2023-11-21T19:26:57;8.70;99.90
40816;DHT22;26535;48.788;9.214;2023-11-21T19:29:26;8.70;99.90
40816;DHT22;26535;48.788;9.214;2023-11-21T19:31:51;8.70;99.90
40816;DHT22;26535;48.788;9.214;2023-11-21T19:34:17;8.70;99.90
40816;DHT22;26535;48.788;9.214;2023-11-21T19:36:44;8.60;99.90
40816;DHT22;26535;48.788;9.214;2023-11-21T19:39:12;8.70;99.90
40816;DHT22;26535;48.788;9.214;2023-11-21T19:41:38;8.70;99.90
40816;DHT22;26535;48.788;9.214;2023-11-21T19:44:05;8.60;99.90
40816;DHT22;26535;48.788;9.214;2023-11-21T19:46:37;8.60;99.90
40816;DHT22;26535;48.788;9.214;2023-11-21T19:49:13;8.60;99.90
40816;DHT22;26535;48.788;9.214;2023-11-21T19:51:40;8.60;99.90
40816;DHT22;26535;48.788;9.214;2023-11-21T19:54:09;8.60;99.90
40816;DHT22;26535;48.788;9.214;2023-11-21T19:56:40;8.50;99.90
40816;DHT22;26535;48.788;9.214;2023-11-21T19:59:11;8.60;99.90
40816;DHT22;26535;48.788;9.214;2023-11-21T20:01:42;8.50;99.90
40816;DHT22;26535;48.788;9.214;2023-11-21T20:04:12;8.50;99.90
40816;DHT22;26535;48.788;9.214;2023-11-21T20:06:41;8.50;99.90
40816;DHT22;26535;48.788;9.214;2023-11-21T20:09:13;8.50;99.90
40816;DHT22;26535;48.788;9.214;2023-11-21T20:11:40;8.40;99.90
40816;DHT22;26535;48.788;9.214;2023-11-21T20:14:05;8.40;99.90
40816;DHT22;26535;48.788;9.214;2023-11-21T20:16:31;8.40;99.90
40816;DHT22;26535;48.788;9.214;2023-11-21T20:18:57;8.40;99.90
40816;DHT22;26535;48.788;9.214;2023-11-21T20:21:25;8.50;99.90
40816;DHT22;26535;48.788;9.214;2023-11-21T20:23:51;8.50;99.90
40816;DHT22;26535;48.788;9.214;2023-11-21T20:26:23;8.60;99.90
40816;DHT22;26535;48.788;9.214;2023-11-21T20:28:49;8.50;99.90
40816;DHT22;26535;48.788;9.214;2023-11-21T20:31:15;8.70;99.90
40816;DHT22;26535;48.788;9.214;2023-11-21T20:33:42;8.60;99.90
40816;DHT22;26535;48.788;9.214;2023-11-21T20:36:07;8.70;99.90
40816;DHT22;26535;48.788;9.214;2023-11-21T20:38:33;8.70;99.90
40816;DHT22;26535;48.788;9.214;2023-11-21T20:40:59;8.70;99.90
40816;DHT22;26535;48.788;9.214;2023-11-21T20:43:25;8.70;99.90
40816;DHT22;26535;48.788;9.214;2023-11-21T20:45:51;8.60;99.90
40816;DHT22;26535;48.788;9.214;2023-11-21T20:48:17;8.60;99.90
40816;DHT22;26535;48.788;9.214;2023-11-21T20:50:45;8.60;99.90